createdAt,value
2017-09-05T00:00:26.346Z,6.90
2017-09-05T00:02:53.762Z,6.23
2017-09-05T00:05:21.174Z,5.90
2017-09-05T00:07:52.128Z,6.87
2017-09-05T00:10:39.179Z,6.83
2017-09-05T00:13:26.922Z,11.77
2017-09-05T00:16:04.244Z,5.60
2017-09-05T00:18:33.088Z,6.17
2017-09-05T00:21:02.372Z,5.33
2017-09-05T00:23:31.148Z,7.80
2017-09-05T00:25:59.421Z,5.83
2017-09-05T00:28:26.827Z,5.97
2017-09-05T00:30:54.237Z,7.20
2017-09-05T00:33:21.660Z,7.20
2017-09-05T00:35:49.073Z,5.73
2017-09-05T00:38:16.477Z,5.60
2017-09-05T00:40:43.889Z,5.93
2017-09-05T00:43:11.302Z,5.57
2017-09-05T00:45:38.730Z,6.73
2017-09-05T00:48:06.148Z,6.30
2017-09-05T00:50:33.561Z,5.70
2017-09-05T00:53:01.746Z,8.33
2017-09-05T00:55:29.807Z,5.80
2017-09-05T00:57:57.221Z,6.63
2017-09-05T01:00:24.640Z,6.20
2017-09-05T01:02:52.470Z,6.70
2017-09-05T01:05:20.139Z,6.30
2017-09-05T01:07:48.098Z,5.93
2017-09-05T01:10:15.514Z,8.70
2017-09-05T01:12:42.925Z,6.23
2017-09-05T01:15:10.349Z,8.17
2017-09-05T01:17:37.759Z,6.80
2017-09-05T01:20:05.182Z,9.03
2017-09-05T01:22:32.589Z,6.57
2017-09-05T01:24:59.997Z,6.50
2017-09-05T01:27:27.423Z,5.30
2017-09-05T01:29:54.835Z,6.47
2017-09-05T01:32:22.256Z,8.60
2017-09-05T01:34:49.671Z,5.97
2017-09-05T01:37:17.080Z,5.90
2017-09-05T01:39:44.491Z,5.93
2017-09-05T01:42:11.906Z,5.50
2017-09-05T01:44:39.318Z,6.33
2017-09-05T01:47:06.750Z,5.93
2017-09-05T01:49:34.165Z,6.10
2017-09-05T01:52:01.591Z,6.07
2017-09-05T01:54:28.998Z,6.43
2017-09-05T01:56:56.422Z,6.07
2017-09-05T01:59:23.834Z,6.13
2017-09-05T02:01:51.248Z,6.50
2017-09-05T02:04:18.657Z,7.53
2017-09-05T02:06:46.078Z,7.10
2017-09-05T02:09:13.495Z,7.73
2017-09-05T02:11:40.911Z,6.63
2017-09-05T02:14:08.327Z,6.87
2017-09-05T02:16:36.522Z,6.83
2017-09-05T02:19:03.946Z,5.90
2017-09-05T02:21:31.366Z,6.97
2017-09-05T02:23:58.786Z,6.73
2017-09-05T02:26:26.778Z,6.30
2017-09-05T02:28:54.193Z,6.40
2017-09-05T02:31:21.617Z,6.03
2017-09-05T02:33:49.030Z,6.13
2017-09-05T02:36:16.451Z,6.77
2017-09-05T02:38:43.861Z,5.17
2017-09-05T02:41:11.273Z,9.77
2017-09-05T02:43:39.329Z,7.60
2017-09-05T02:46:06.738Z,5.70
2017-09-05T02:48:34.153Z,4.87
2017-09-05T02:51:01.570Z,5.40
2017-09-05T02:53:28.988Z,5.03
2017-09-05T02:55:56.396Z,4.77
2017-09-05T02:58:23.814Z,5.73
2017-09-05T03:00:51.486Z,4.97
2017-09-05T03:03:18.894Z,6.80
2017-09-05T03:05:46.307Z,6.50
2017-09-05T03:08:14.241Z,6.30
2017-09-05T03:10:41.654Z,6.50
2017-09-05T03:13:09.078Z,5.27
2017-09-05T03:15:36.498Z,5.73
2017-09-05T03:18:03.962Z,4.53
2017-09-05T03:20:31.374Z,5.47
2017-09-05T03:22:58.777Z,4.10
2017-09-05T03:25:26.194Z,5.80
2017-09-05T03:27:53.610Z,4.70
2017-09-05T03:30:21.019Z,4.23
2017-09-05T03:32:48.446Z,5.07
2017-09-05T03:35:15.862Z,4.63
2017-09-05T03:37:43.274Z,4.43
2017-09-05T03:40:10.689Z,4.13
2017-09-05T03:42:38.097Z,4.80
2017-09-05T03:45:06.231Z,4.00
2017-09-05T03:47:34.062Z,5.30
2017-09-05T03:50:01.492Z,6.73
2017-09-05T03:52:28.896Z,5.77
2017-09-05T03:54:56.315Z,6.50
2017-09-05T03:57:23.725Z,6.17
2017-09-05T03:59:51.153Z,5.80
2017-09-05T04:02:18.566Z,5.63
2017-09-05T04:04:46.000Z,5.83
2017-09-05T04:07:13.394Z,6.20
2017-09-05T04:09:40.823Z,6.17
2017-09-05T04:12:08.244Z,7.03
2017-09-05T04:14:35.672Z,5.70
2017-09-05T04:17:03.084Z,6.40
2017-09-05T04:19:30.495Z,6.03
2017-09-05T04:21:57.906Z,5.97
2017-09-05T04:24:25.387Z,5.83
2017-09-05T04:26:52.798Z,5.77
2017-09-05T04:29:20.222Z,6.03
2017-09-05T04:31:47.638Z,6.20
2017-09-05T04:34:15.053Z,6.37
2017-09-05T04:36:42.471Z,6.40
2017-09-05T04:39:09.899Z,7.03
2017-09-05T04:41:37.318Z,6.90
2017-09-05T04:44:04.737Z,5.40
2017-09-05T04:46:32.513Z,5.33
2017-09-05T04:48:59.928Z,6.17
2017-09-05T04:51:27.351Z,7.73
2017-09-05T04:53:55.276Z,6.40
2017-09-05T04:56:22.693Z,7.20
2017-09-05T04:58:50.107Z,5.87
2017-09-05T05:01:17.526Z,7.50
2017-09-05T05:03:44.942Z,6.90
2017-09-05T05:06:12.360Z,7.90
2017-09-05T05:08:40.425Z,6.43
2017-09-05T05:11:07.835Z,6.30
2017-09-05T05:13:35.257Z,6.37
2017-09-05T05:16:02.674Z,6.10
2017-09-05T05:18:30.085Z,9.10
2017-09-05T05:20:57.513Z,7.00
2017-09-05T05:23:25.640Z,7.27
2017-09-05T05:25:53.075Z,6.40
2017-09-05T05:28:20.489Z,6.60
2017-09-05T05:30:47.902Z,6.20
2017-09-05T05:33:15.324Z,6.93
2017-09-05T05:35:42.743Z,6.63
2017-09-05T05:38:10.158Z,6.20
2017-09-05T05:40:37.575Z,7.00
2017-09-05T05:43:04.990Z,7.83
2017-09-05T05:45:32.411Z,8.03
2017-09-05T05:47:59.827Z,6.83
2017-09-05T05:50:27.247Z,6.27
2017-09-05T05:52:54.658Z,7.90
2017-09-05T05:55:22.078Z,6.53
2017-09-05T05:57:51.311Z,6.60
2017-09-05T06:00:18.725Z,6.23
2017-09-05T06:02:46.143Z,7.33
2017-09-05T06:05:13.547Z,5.77
2017-09-05T06:07:40.969Z,6.40
2017-09-05T06:10:08.373Z,6.50
2017-09-05T06:12:35.799Z,6.90
2017-09-05T06:15:03.210Z,6.97
2017-09-05T06:17:30.636Z,6.20
2017-09-05T06:19:58.049Z,8.90
2017-09-05T06:22:25.479Z,6.40
2017-09-05T06:24:53.654Z,4.87
2017-09-05T06:27:21.079Z,5.57
2017-09-05T06:29:48.482Z,5.20
2017-09-05T06:32:16.630Z,5.37
2017-09-05T06:34:44.038Z,8.43
2017-09-05T06:37:11.455Z,4.97
2017-09-05T06:39:38.865Z,5.77
2017-09-05T06:42:07.448Z,6.10
2017-09-05T06:44:34.860Z,6.53
2017-09-05T06:47:02.771Z,4.90
2017-09-05T06:49:30.178Z,5.90
2017-09-05T06:51:57.590Z,5.53
2017-09-05T06:54:25.009Z,5.97
2017-09-05T06:56:52.669Z,5.20
2017-09-05T06:59:20.077Z,5.50
2017-09-05T07:01:47.508Z,4.00
2017-09-05T07:04:15.273Z,5.03
2017-09-05T07:06:42.671Z,4.67
2017-09-05T07:09:10.085Z,5.80
2017-09-05T07:11:37.495Z,4.27
2017-09-05T07:14:04.918Z,4.03
2017-09-05T07:16:40.011Z,4.70
2017-09-05T07:19:07.431Z,3.80
2017-09-05T07:21:34.841Z,4.33
2017-09-05T07:24:02.257Z,4.40
2017-09-05T07:26:29.674Z,4.20
2017-09-05T07:28:57.090Z,4.03
2017-09-05T07:31:24.613Z,3.33
2017-09-05T07:33:52.026Z,3.73
2017-09-05T07:36:19.445Z,5.07
2017-09-05T07:38:46.860Z,4.30
2017-09-05T07:41:14.270Z,4.10
2017-09-05T07:43:42.686Z,3.70
2017-09-05T07:46:10.109Z,4.27
2017-09-05T07:48:37.534Z,3.80
2017-09-05T07:51:04.949Z,5.73
2017-09-05T07:53:32.365Z,5.07
2017-09-05T07:55:59.778Z,3.90
2017-09-05T07:58:27.190Z,4.07
2017-09-05T08:00:54.606Z,3.27
2017-09-05T08:03:22.041Z,3.73
2017-09-05T08:05:49.457Z,4.33
2017-09-05T08:08:16.880Z,5.73
2017-09-05T08:10:44.298Z,3.47
2017-09-05T08:13:11.708Z,4.00
2017-09-05T08:15:39.126Z,3.73
2017-09-05T08:18:07.451Z,3.90
2017-09-05T08:20:34.861Z,3.97
2017-09-05T08:23:02.267Z,4.33
2017-09-05T08:25:29.690Z,4.80
2017-09-05T08:27:57.104Z,5.20
2017-09-05T08:30:24.575Z,4.83
2017-09-05T08:32:51.992Z,4.90
2017-09-05T08:35:19.409Z,4.97
2017-09-05T08:37:46.826Z,5.03
2017-09-05T08:40:14.242Z,4.50
2017-09-05T08:42:41.658Z,4.40
2017-09-05T08:45:09.076Z,5.03
2017-09-05T08:47:36.500Z,8.50
2017-09-05T08:50:03.914Z,4.47
2017-09-05T08:52:31.329Z,4.23
2017-09-05T08:54:58.747Z,5.03
2017-09-05T08:57:26.183Z,7.17
2017-09-05T08:59:53.597Z,5.53
2017-09-05T09:02:21.010Z,5.20
2017-09-05T09:04:48.422Z,4.93
2017-09-05T09:07:15.847Z,4.33
2017-09-05T09:09:43.247Z,5.00
2017-09-05T09:12:10.689Z,4.90
2017-09-05T09:14:38.096Z,5.97
2017-09-05T09:17:05.521Z,4.73
2017-09-05T09:19:32.937Z,5.13
2017-09-05T09:22:00.360Z,5.67
2017-09-05T09:24:27.775Z,5.83
2017-09-05T09:26:55.202Z,4.67
2017-09-05T09:29:22.610Z,5.30
2017-09-05T09:31:50.037Z,5.13
2017-09-05T09:34:17.456Z,5.57
2017-09-05T09:36:44.877Z,5.80
2017-09-05T09:39:12.307Z,6.23
2017-09-05T09:41:39.714Z,6.10
2017-09-05T09:44:07.134Z,8.20
2017-09-05T09:46:34.550Z,6.73
2017-09-05T09:49:01.966Z,5.53
2017-09-05T09:51:29.385Z,5.73
2017-09-05T09:53:56.791Z,6.07
2017-09-05T09:56:24.631Z,4.77
2017-09-05T09:58:52.037Z,9.30
2017-09-05T10:01:19.463Z,5.27
2017-09-05T10:03:46.875Z,6.13
2017-09-05T10:06:14.286Z,9.50
2017-09-05T10:08:42.393Z,5.40
2017-09-05T10:11:09.793Z,5.10
2017-09-05T10:13:37.219Z,3.80
2017-09-05T10:16:04.622Z,6.37
2017-09-05T10:18:32.470Z,5.23
2017-09-05T10:20:59.889Z,4.13
2017-09-05T10:23:27.301Z,5.87
2017-09-05T10:25:54.723Z,8.47
2017-09-05T10:28:22.145Z,6.50
2017-09-05T10:30:49.550Z,5.40
2017-09-05T10:33:16.974Z,5.00
2017-09-05T10:35:44.387Z,5.90
2017-09-05T10:38:11.801Z,4.90
2017-09-05T10:40:39.213Z,5.57
2017-09-05T10:43:07.547Z,5.63
2017-09-05T10:45:34.959Z,5.83
2017-09-05T10:48:02.371Z,3.93
2017-09-05T10:50:30.431Z,6.00
2017-09-05T10:52:57.846Z,5.17
2017-09-05T10:55:25.257Z,5.87
2017-09-05T10:57:54.331Z,5.93
2017-09-05T11:00:22.250Z,5.53
2017-09-05T11:02:49.685Z,5.83
2017-09-05T11:05:17.095Z,4.07
2017-09-05T11:07:44.528Z,4.97
2017-09-05T11:10:11.929Z,4.83
2017-09-05T11:12:39.351Z,4.80
2017-09-05T11:15:06.795Z,5.13
2017-09-05T11:17:34.470Z,6.10
2017-09-05T11:20:01.891Z,5.40
2017-09-05T11:22:29.298Z,4.70
2017-09-05T11:24:57.282Z,7.60
2017-09-05T11:27:24.695Z,4.90
2017-09-05T11:29:52.931Z,4.50
2017-09-05T11:32:20.334Z,4.77
2017-09-05T11:34:47.761Z,4.37
2017-09-05T11:37:15.174Z,4.87
2017-09-05T11:39:42.990Z,5.77
2017-09-05T11:42:10.411Z,4.70
2017-09-05T11:44:37.838Z,5.70
2017-09-05T11:47:05.255Z,5.63
2017-09-05T11:49:33.438Z,3.90
2017-09-05T11:52:00.854Z,2.70
2017-09-05T11:54:28.280Z,2.17
2017-09-05T11:56:55.681Z,3.70
2017-09-05T11:59:23.981Z,3.43
2017-09-05T12:01:51.399Z,2.73
2017-09-05T12:04:18.815Z,2.20
2017-09-05T12:06:46.230Z,2.30
2017-09-05T12:09:14.023Z,3.40
2017-09-05T12:11:41.438Z,3.00
2017-09-05T12:14:09.634Z,2.80
2017-09-05T12:16:37.088Z,2.50
2017-09-05T12:19:04.479Z,2.03
2017-09-05T12:21:31.903Z,2.80
2017-09-05T12:24:00.081Z,2.77
2017-09-05T12:26:27.497Z,2.60
2017-09-05T12:28:54.925Z,2.80
2017-09-05T12:31:22.355Z,4.30
2017-09-05T12:33:49.871Z,3.07
2017-09-05T12:36:17.654Z,4.90
2017-09-05T12:38:45.079Z,3.80
2017-09-05T12:41:12.498Z,3.37
2017-09-05T12:43:39.921Z,3.00
2017-09-05T12:46:07.330Z,3.47
2017-09-05T12:48:34.747Z,2.50
2017-09-05T12:51:02.874Z,2.60
2017-09-05T12:53:30.914Z,3.23
2017-09-05T12:55:58.335Z,3.53
2017-09-05T12:58:25.741Z,4.27
2017-09-05T13:00:53.678Z,3.13
2017-09-05T13:03:21.086Z,4.53
2017-09-05T13:05:49.266Z,5.93
2017-09-05T13:08:16.689Z,2.97
2017-09-05T13:10:44.746Z,4.37
2017-09-05T13:13:12.162Z,3.27
2017-09-05T13:15:39.583Z,3.73
2017-09-05T13:18:07.002Z,3.70
2017-09-05T13:20:35.170Z,3.30
2017-09-05T13:23:02.590Z,3.77
2017-09-05T13:25:29.989Z,4.40
2017-09-05T13:27:57.419Z,3.70
2017-09-05T13:30:25.360Z,2.50
2017-09-05T13:32:53.434Z,2.97
2017-09-05T13:35:21.781Z,2.27
2017-09-05T13:37:49.198Z,2.30
2017-09-05T13:40:16.606Z,2.43
2017-09-05T13:42:44.067Z,1.70
2017-09-05T13:45:11.454Z,2.20
2017-09-05T13:47:39.789Z,2.33
2017-09-05T13:50:08.112Z,1.80
2017-09-05T13:52:35.525Z,2.10
2017-09-05T13:55:02.933Z,2.20
2017-09-05T13:57:30.351Z,2.20
2017-09-05T13:59:57.750Z,2.30
2017-09-05T14:02:25.551Z,2.03
2017-09-05T14:04:52.974Z,3.10
2017-09-05T14:07:20.627Z,2.10
2017-09-05T14:09:48.022Z,2.30
2017-09-05T14:12:15.444Z,3.77
2017-09-05T14:14:43.522Z,2.77
2017-09-05T14:17:10.939Z,1.87
2017-09-05T14:19:38.350Z,2.50
2017-09-05T14:22:05.761Z,2.77
2017-09-05T14:24:33.567Z,2.40
2017-09-05T14:27:01.684Z,2.60
2017-09-05T14:29:29.715Z,2.50
2017-09-05T14:31:57.111Z,1.97
2017-09-05T14:34:24.527Z,2.80
2017-09-05T14:36:51.934Z,3.00
2017-09-05T14:39:19.349Z,2.40
2017-09-05T14:41:46.763Z,3.17
2017-09-05T14:44:14.181Z,2.70
2017-09-05T14:46:41.626Z,2.70
2017-09-05T14:49:09.043Z,2.70
2017-09-05T14:51:36.442Z,2.90
2017-09-05T14:54:03.857Z,2.90
2017-09-05T14:56:31.270Z,2.77
2017-09-05T14:58:58.691Z,5.57
2017-09-05T15:01:26.107Z,3.10
2017-09-05T15:03:53.527Z,2.87
2017-09-05T15:06:20.943Z,3.53
2017-09-05T15:08:49.171Z,2.83
2017-09-05T15:11:16.577Z,3.00
2017-09-05T15:13:43.990Z,2.83
2017-09-05T15:16:11.418Z,2.73
2017-09-05T15:18:38.837Z,3.40
2017-09-05T15:21:06.240Z,3.10
2017-09-05T15:23:33.649Z,3.20
2017-09-05T15:26:01.070Z,4.83
2017-09-05T15:28:28.478Z,3.70
2017-09-05T15:30:55.916Z,3.60
2017-09-05T15:33:23.309Z,3.20
2017-09-05T15:35:50.726Z,3.93
2017-09-05T15:38:18.142Z,3.23
2017-09-05T15:40:45.594Z,3.80
2017-09-05T15:43:12.979Z,3.63
2017-09-05T15:45:40.536Z,6.53
2017-09-05T15:48:07.922Z,4.00
2017-09-05T15:50:35.737Z,3.67
2017-09-05T15:53:03.145Z,8.60
2017-09-05T15:55:30.570Z,5.63
2017-09-05T15:57:57.983Z,4.80
2017-09-05T16:00:25.402Z,4.87
2017-09-05T16:02:52.821Z,4.00
2017-09-05T16:05:20.229Z,4.43
2017-09-05T16:07:47.643Z,5.87
2017-09-05T16:10:15.057Z,5.90
2017-09-05T16:12:42.478Z,3.80
2017-09-05T16:15:09.891Z,5.87
2017-09-05T16:17:37.346Z,6.23
2017-09-05T16:20:04.741Z,4.23
2017-09-05T16:22:32.245Z,6.80
2017-09-05T16:25:06.269Z,4.23
2017-09-05T16:27:37.030Z,4.57
2017-09-05T16:30:04.463Z,5.00
2017-09-05T16:32:38.938Z,6.20
2017-09-05T16:35:06.918Z,4.90
2017-09-05T16:37:34.355Z,11.80
2017-09-05T16:40:01.775Z,5.87
2017-09-05T16:42:32.110Z,4.17
2017-09-05T16:45:00.317Z,4.70
2017-09-05T16:47:27.761Z,4.80
2017-09-05T16:49:55.159Z,4.10
2017-09-05T16:52:22.573Z,5.07
2017-09-05T16:54:49.998Z,4.23
2017-09-05T16:57:17.424Z,4.50
2017-09-05T16:59:44.834Z,4.73
2017-09-05T17:02:12.251Z,5.67
2017-09-05T17:04:39.675Z,3.90
2017-09-05T17:07:07.095Z,4.43
2017-09-05T17:09:34.522Z,4.83
2017-09-05T17:12:01.941Z,4.60
2017-09-05T17:14:29.373Z,4.53
2017-09-05T17:16:56.789Z,4.27
2017-09-05T17:19:24.206Z,4.90
2017-09-05T17:21:51.617Z,5.00
2017-09-05T17:24:19.031Z,4.63
2017-09-05T17:26:46.834Z,7.40
2017-09-05T17:29:14.217Z,4.90
2017-09-05T17:31:41.642Z,4.10
2017-09-05T17:34:09.077Z,4.90
2017-09-05T17:36:36.570Z,5.13
2017-09-05T17:39:03.990Z,7.00
2017-09-05T17:41:31.405Z,5.40
2017-09-05T17:43:59.583Z,6.07
2017-09-05T17:46:27.897Z,4.90
2017-09-05T17:48:55.308Z,4.87
2017-09-05T17:51:23.492Z,6.07
2017-09-05T17:53:50.906Z,5.10
2017-09-05T17:56:18.318Z,4.80
2017-09-05T17:58:45.725Z,4.83
2017-09-05T18:01:13.144Z,5.20
2017-09-05T18:03:41.807Z,5.13
2017-09-05T18:06:09.241Z,5.23
2017-09-05T18:08:37.547Z,5.97
2017-09-05T18:11:04.955Z,5.27
2017-09-05T18:13:32.384Z,4.50
2017-09-05T18:15:59.787Z,5.17
2017-09-05T18:18:27.202Z,5.30
2017-09-05T18:20:54.630Z,5.50
2017-09-05T18:23:22.066Z,5.60
2017-09-05T18:25:51.407Z,5.13
2017-09-05T18:28:18.818Z,5.30
2017-09-05T18:30:46.229Z,7.57
2017-09-05T18:33:13.643Z,6.60
2017-09-05T18:35:41.056Z,4.17
2017-09-05T18:38:08.478Z,9.83
2017-09-05T18:40:35.888Z,6.07
2017-09-05T18:43:03.313Z,6.00
2017-09-05T18:45:31.134Z,4.67
2017-09-05T18:47:58.567Z,3.93
2017-09-05T18:50:26.577Z,5.47
2017-09-05T18:52:54.358Z,4.00
2017-09-05T18:55:21.809Z,4.03
2017-09-05T18:57:49.218Z,5.60
2017-09-05T19:00:16.629Z,5.10
2017-09-05T19:02:44.042Z,3.73
2017-09-05T19:05:11.457Z,4.13
2017-09-05T19:07:39.877Z,3.37
2017-09-05T19:10:07.289Z,7.97
2017-09-05T19:12:34.933Z,6.53
2017-09-05T19:15:02.352Z,2.73
2017-09-05T19:17:29.762Z,4.60
2017-09-05T19:19:57.444Z,3.93
2017-09-05T19:22:24.841Z,3.03
2017-09-05T19:24:52.258Z,2.83
2017-09-05T19:27:19.665Z,2.73
2017-09-05T19:29:59.882Z,2.77
2017-09-05T19:38:09.008Z,3.10
2017-09-05T19:40:36.432Z,3.03
2017-09-05T19:43:03.834Z,2.57
2017-09-05T19:45:31.255Z,2.97
2017-09-05T19:47:58.666Z,2.30
2017-09-05T19:50:26.090Z,3.00
2017-09-05T19:52:53.497Z,2.40
2017-09-05T19:55:21.685Z,3.23
2017-09-05T19:57:49.094Z,2.27
2017-09-05T20:00:16.518Z,2.17
2017-09-05T20:02:44.450Z,2.47
2017-09-05T20:05:11.870Z,3.37
2017-09-05T20:07:39.282Z,5.83
2017-09-05T20:10:06.707Z,2.47
2017-09-05T20:12:34.122Z,2.83
2017-09-05T20:15:01.543Z,2.00
2017-09-05T20:17:28.951Z,2.40
2017-09-05T20:19:56.377Z,2.40
2017-09-05T20:22:23.895Z,2.00
2017-09-05T20:24:51.316Z,2.40
2017-09-05T20:27:18.734Z,3.13
2017-09-05T20:29:46.158Z,3.37
2017-09-05T20:32:13.569Z,2.10
2017-09-05T20:34:40.985Z,3.43
2017-09-05T20:37:08.411Z,1.97
2017-09-05T20:39:35.830Z,2.67
2017-09-05T20:42:03.256Z,1.60
2017-09-05T20:44:30.864Z,2.30
2017-09-05T20:46:58.262Z,4.13
2017-09-05T20:49:25.676Z,3.50
2017-09-05T20:51:53.090Z,2.40
2017-09-05T20:54:20.494Z,3.27
2017-09-05T20:56:47.929Z,2.00
2017-09-05T20:59:15.348Z,2.17
2017-09-05T21:01:43.075Z,2.93
2017-09-05T21:04:10.454Z,2.40
2017-09-05T21:06:37.878Z,2.33
2017-09-05T21:09:05.313Z,2.20
2017-09-05T21:11:32.724Z,4.20
2017-09-05T21:14:00.920Z,2.50
2017-09-05T21:16:28.330Z,2.50
2017-09-05T21:18:55.754Z,2.60
2017-09-05T21:21:23.166Z,3.57
2017-09-05T21:23:50.581Z,3.23
2017-09-05T21:26:18.909Z,4.77
2017-09-05T21:28:46.318Z,7.10
2017-09-05T21:31:13.734Z,2.70
2017-09-05T21:33:41.142Z,1.87
2017-09-05T21:36:08.759Z,2.53
2017-09-05T21:38:36.174Z,3.47
2017-09-05T21:41:03.591Z,2.27
2017-09-05T21:43:31.016Z,2.37
2017-09-05T21:45:58.431Z,2.10
2017-09-05T21:48:25.852Z,2.63
2017-09-05T21:50:53.272Z,3.00
2017-09-05T21:53:20.693Z,1.77
2017-09-05T21:55:48.111Z,1.93
2017-09-05T21:58:15.518Z,5.33
2017-09-05T22:00:42.932Z,2.57
2017-09-05T22:03:10.351Z,2.20
2017-09-05T22:05:38.015Z,1.70
2017-09-05T22:08:05.712Z,3.37
2017-09-05T22:10:33.157Z,1.97
2017-09-05T22:13:00.581Z,1.97
2017-09-05T22:15:33.753Z,1.73
2017-09-05T22:18:01.169Z,1.87
2017-09-05T22:20:34.206Z,1.73
2017-09-05T22:23:01.622Z,3.60
2017-09-05T22:25:34.662Z,3.53
2017-09-05T22:28:07.838Z,1.70
2017-09-05T22:30:35.255Z,1.80
2017-09-05T22:33:02.670Z,2.13
2017-09-05T22:35:30.092Z,1.57
2017-09-05T22:37:57.509Z,2.67
2017-09-05T22:40:24.917Z,3.93
2017-09-05T22:42:52.333Z,1.80
2017-09-05T22:45:19.739Z,1.70
2017-09-05T22:47:49.090Z,2.10
2017-09-05T22:50:16.515Z,2.80
2017-09-05T22:52:43.935Z,1.70
2017-09-05T22:55:11.351Z,2.63
2017-09-05T22:57:38.767Z,3.83
2017-09-05T23:00:06.183Z,3.60
2017-09-05T23:02:33.638Z,2.53
2017-09-05T23:05:01.050Z,1.73
2017-09-05T23:07:28.472Z,2.00
2017-09-05T23:09:56.679Z,6.13
2017-09-05T23:12:24.094Z,1.47
2017-09-05T23:14:51.506Z,1.77
2017-09-05T23:17:18.928Z,1.93
2017-09-05T23:19:46.335Z,3.80
2017-09-05T23:22:13.758Z,1.67
2017-09-05T23:24:41.171Z,1.83
2017-09-05T23:27:08.600Z,1.70
2017-09-05T23:29:36.893Z,1.70
2017-09-05T23:32:04.315Z,1.53
2017-09-05T23:34:31.729Z,6.93
2017-09-05T23:36:59.137Z,1.67
2017-09-05T23:39:26.549Z,2.40
2017-09-05T23:41:53.955Z,2.00
2017-09-05T23:44:21.379Z,1.77
2017-09-05T23:46:49.483Z,3.20
2017-09-05T23:49:16.898Z,2.23
2017-09-05T23:51:44.318Z,1.23
2017-09-05T23:54:11.740Z,1.50
2017-09-05T23:56:39.146Z,1.77
2017-09-05T23:59:06.571Z,1.27
